Time;durP1;ratioP1;P1;durP2;ratioP2;P2;SDS_P1;SDS_P2;PMS_P1;PMS_P2;Temp;Humidity;BMP_temperature;BMP_pressure;BME280_temperature;BME280_humidity;BME280_pressure;Samples;Min_cycle;Max_cycle;Signal;HPM_P1;HPM_P2
2022/10/27 00:01:12;;;;;;;0.40;0.40;;;12.30;99.90;;;;;;5012670;28;20573;-66
2022/10/27 00:04:00;;;;;;;0.40;0.40;;;12.00;99.90;;;;;;5013473;28;20508;-66
2022/10/27 00:06:48;;;;;;;0.40;0.40;;;12.00;99.90;;;;;;5012561;28;20461;-66
2022/10/27 00:09:36;;;;;;;0.40;0.40;;;11.90;99.90;;;;;;5012806;28;20817;-66
2022/10/27 00:12:25;;;;;;;0.40;0.40;;;12.00;99.90;;;;;;5012751;28;20429;-67
2022/10/27 00:15:13;;;;;;;0.40;0.40;;;11.90;99.90;;;;;;5012710;28;20445;-66
2022/10/27 00:18:07;;;;;;;0.40;0.40;;;11.90;99.90;;;;;;5012487;28;20930;-66
2022/10/27 00:21:00;;;;;;;0.40;0.40;;;11.90;99.90;;;;;;5013726;28;20430;-66
2022/10/27 00:23:49;;;;;;;0.40;0.40;;;11.90;99.90;;;;;;5012300;28;20960;-66
2022/10/27 00:26:37;;;;;;;0.40;0.40;;;11.90;99.90;;;;;;5012606;28;20469;-66
2022/10/27 00:29:25;;;;;;;0.40;0.40;;;11.90;99.90;;;;;;5012865;28;20815;-66
2022/10/27 00:32:14;;;;;;;0.60;0.60;;;11.90;99.90;;;;;;5013022;28;20430;-66
2022/10/27 00:35:03;;;;;;;0.40;0.40;;;11.80;99.90;;;;;;5011743;28;20792;-66
2022/10/27 00:37:51;;;;;;;0.40;0.40;;;11.80;99.90;;;;;;5012409;28;20430;-66
2022/10/27 00:40:40;;;;;;;0.40;0.40;;;11.80;99.90;;;;;;5013150;28;20422;-66
2022/10/27 00:43:31;;;;;;;0.60;0.60;;;11.80;99.90;;;;;;5017173;28;20923;-66
2022/10/27 00:46:26;;;;;;;0.40;0.40;;;11.80;99.90;;;;;;5014865;28;20533;-66
2022/10/27 00:49:17;;;;;;;0.50;0.50;;;11.70;99.90;;;;;;5011860;28;20410;-66
2022/10/27 00:52:14;;;;;;;0.40;0.40;;;11.70;99.90;;;;;;5012398;28;20422;-66
2022/10/27 00:55:06;;;;;;;0.40;0.40;;;11.70;99.90;;;;;;5011782;28;20985;-66
2022/10/27 00:57:57;;;;;;;0.40;0.40;;;11.70;99.90;;;;;;5028996;28;20424;-66
2022/10/27 01:00:45;;;;;;;0.40;0.40;;;11.70;99.90;;;;;;5033006;28;20421;-65
2022/10/27 01:03:34;;;;;;;0.40;0.40;;;11.70;99.90;;;;;;5030747;28;20417;-66
2022/10/27 01:06:22;;;;;;;0.40;0.40;;;11.60;99.90;;;;;;5033274;28;20433;-66
2022/10/27 01:09:12;;;;;;;0.80;0.80;;;11.70;99.90;;;;;;5032090;28;20806;-66
2022/10/27 01:12:00;;;;;;;0.40;0.40;;;11.60;99.90;;;;;;5033130;28;20448;-66
2022/10/27 01:14:48;;;;;;;0.40;0.40;;;11.60;99.90;;;;;;5039341;28;20878;-65
2022/10/27 01:17:46;;;;;;;0.40;0.40;;;11.60;99.90;;;;;;5056300;28;20413;-66
2022/10/27 01:21:27;;;;;;;0.40;0.40;;;11.60;99.90;;;;;;5058201;28;20425;-66
2022/10/27 01:24:43;;;;;;;0.40;0.40;;;11.50;99.90;;;;;;5055629;28;20436;-66
2022/10/27 01:27:49;;;;;;;0.40;0.40;;;11.50;99.90;;;;;;5057506;28;20454;-66
2022/10/27 01:30:47;;;;;;;0.40;0.40;;;11.50;99.90;;;;;;5051775;28;20978;-66
2022/10/27 01:33:43;;;;;;;0.40;0.40;;;11.50;99.90;;;;;;5037038;28;20423;-66
2022/10/27 01:36:36;;;;;;;0.40;0.40;;;11.60;99.90;;;;;;5036001;28;20431;-66
2022/10/27 01:39:30;;;;;;;0.40;0.40;;;11.60;99.90;;;;;;5035899;28;20428;-66
2022/10/27 01:42:25;;;;;;;0.40;0.40;;;11.60;99.90;;;;;;5035470;28;20801;-66
2022/10/27 01:45:17;;;;;;;0.40;0.40;;;11.50;99.90;;;;;;5036318;28;20444;-66
2022/10/27 01:48:08;;;;;;;0.40;0.40;;;11.50;99.90;;;;;;5034436;28;20460;-66
2022/10/27 01:50:56;;;;;;;0.40;0.40;;;11.50;99.90;;;;;;5035295;28;20951;-66
2022/10/27 01:53:50;;;;;;;0.40;0.40;;;11.60;99.90;;;;;;5034252;28;20460;-66
2022/10/27 01:56:54;;;;;;;0.40;0.40;;;11.50;99.90;;;;;;5036005;28;20915;-65
2022/10/27 01:59:57;;;;;;;0.40;0.40;;;11.60;99.90;;;;;;5038116;28;20455;-66
2022/10/27 02:02:51;;;;;;;0.40;0.40;;;11.50;99.90;;;;;;5015235;28;20422;-65
2022/10/27 02:05:48;;;;;;;0.40;0.40;;;11.50;99.90;;;;;;5015228;28;20856;-66
2022/10/27 02:08:41;;;;;;;0.40;0.40;;;11.50;99.90;;;;;;5014539;28;20461;-66
2022/10/27 02:11:33;;;;;;;0.40;0.40;;;11.50;99.90;;;;;;5014313;28;20854;-66
2022/10/27 02:14:22;;;;;;;0.60;0.60;;;11.50;99.90;;;;;;5015438;28;20533;-65
2022/10/27 02:17:12;;;;;;;0.40;0.40;;;11.50;99.90;;;;;;5014927;28;20446;-66
2022/10/27 02:20:04;;;;;;;0.40;0.40;;;11.50;99.90;;;;;;5014784;28;20454;-66
2022/10/27 02:22:56;;;;;;;4.30;3.90;;;11.50;99.90;;;;;;5014535;28;20956;-66
2022/10/27 02:25:48;;;;;;;0.40;0.40;;;11.40;99.90;;;;;;5013025;28;20457;-66
2022/10/27 02:28:43;;;;;;;0.40;0.40;;;11.50;99.90;;;;;;5013842;28;20538;-66
2022/10/27 02:31:35;;;;;;;0.40;0.40;;;11.40;99.90;;;;;;5014634;28;20434;-66
2022/10/27 02:34:25;;;;;;;0.40;0.40;;;11.40;99.90;;;;;;5013861;28;20568;-66
2022/10/27 02:37:18;;;;;;;0.40;0.40;;;11.40;99.90;;;;;;5014012;28;20448;-66
2022/10/27 02:40:10;;;;;;;0.47;0.47;;;11.40;99.90;;;;;;5014010;28;20445;-66
2022/10/27 02:42:58;;;;;;;0.40;0.40;;;11.40;99.90;;;;;;5014472;28;20535;-66
2022/10/27 02:45:46;;;;;;;0.40;0.40;;;11.40;99.90;;;;;;5014245;28;21057;-65
2022/10/27 02:48:34;;;;;;;0.40;0.40;;;11.40;99.90;;;;;;5014270;28;20469;-66
2022/10/27 02:51:22;;;;;;;0.40;0.40;;;11.30;99.90;;;;;;5013088;28;20422;-66
2022/10/27 02:54:10;;;;;;;0.40;0.40;;;11.30;99.90;;;;;;5014511;28;20956;-66
2022/10/27 02:57:00;;;;;;;0.40;0.40;;;11.40;99.90;;;;;;5022705;28;20583;-66
2022/10/27 02:59:48;;;;;;;0.40;0.40;;;11.30;99.90;;;;;;5033765;28;20872;-66
2022/10/27 03:02:40;;;;;;;0.40;0.40;;;11.20;99.90;;;;;;5033346;28;20825;-66
2022/10/27 03:05:28;;;;;;;0.40;0.40;;;11.40;99.90;;;;;;5033737;28;20786;-66
2022/10/27 03:08:16;;;;;;;0.40;0.40;;;11.40;99.90;;;;;;5033131;28;20457;-66
2022/10/27 03:11:05;;;;;;;0.40;0.40;;;11.20;99.90;;;;;;5033550;28;20512;-66
2022/10/27 03:13:54;;;;;;;0.40;0.40;;;11.20;99.90;;;;;;5033658;28;20432;-65
2022/10/27 03:16:42;;;;;;;0.40;0.40;;;11.20;99.90;;;;;;5032769;28;20437;-66
2022/10/27 03:19:30;;;;;;;0.40;0.40;;;11.20;99.90;;;;;;5032698;28;20417;-66
2022/10/27 03:22:18;;;;;;;0.40;0.40;;;11.20;99.90;;;;;;5034137;28;20433;-67
2022/10/27 03:25:07;;;;;;;0.40;0.40;;;11.20;99.90;;;;;;5033349;28;20599;-66
2022/10/27 03:27:55;;;;;;;0.40;0.40;;;11.10;99.90;;;;;;5033409;28;20429;-66
2022/10/27 03:30:45;;;;;;;0.40;0.40;;;11.10;99.90;;;;;;5034886;28;20421;-66
2022/10/27 03:33:33;;;;;;;0.40;0.40;;;11.10;99.90;;;;;;5035870;28;20423;-66
2022/10/27 03:36:21;;;;;;;0.70;0.70;;;11.10;99.90;;;;;;5032884;28;20467;-66
2022/10/27 03:39:09;;;;;;;0.40;0.40;;;11.10;99.90;;;;;;5031959;28;20438;-66
2022/10/27 03:41:57;;;;;;;0.40;0.40;;;11.10;99.90;;;;;;5033256;28;20429;-66
2022/10/27 03:44:45;;;;;;;0.40;0.40;;;11.10;99.90;;;;;;5033085;28;20489;-66
2022/10/27 03:47:34;;;;;;;0.40;0.40;;;11.10;99.90;;;;;;5033063;28;20583;-66
2022/10/27 03:50:22;;;;;;;0.40;0.40;;;11.10;99.90;;;;;;5032707;28;20547;-66
2022/10/27 03:53:10;;;;;;;0.40;0.40;;;11.10;99.90;;;;;;5032984;28;20443;-66
2022/10/27 03:55:58;;;;;;;0.40;0.40;;;11.10;99.90;;;;;;5032561;28;20824;-66
2022/10/27 03:58:46;;;;;;;0.40;0.40;;;11.10;99.90;;;;;;5025374;28;20418;-66
2022/10/27 04:01:34;;;;;;;0.40;0.40;;;11.10;99.90;;;;;;5032651;28;20444;-65
2022/10/27 04:04:24;;;;;;;0.40;0.40;;;11.00;99.90;;;;;;5033162;28;20831;-66
2022/10/27 04:07:12;;;;;;;0.40;0.40;;;11.00;99.90;;;;;;5032551;28;20424;-66
2022/10/27 04:10:00;;;;;;;0.40;0.40;;;11.10;99.90;;;;;;5032341;28;20475;-66
2022/10/27 04:12:49;;;;;;;0.40;0.40;;;11.00;99.90;;;;;;5032505;28;20428;-66
2022/10/27 04:15:37;;;;;;;0.40;0.40;;;11.00;99.90;;;;;;5032829;28;20532;-66
2022/10/27 04:18:25;;;;;;;0.40;0.40;;;11.00;99.90;;;;;;5032368;28;20425;-66
2022/10/27 04:21:15;;;;;;;0.40;0.40;;;11.00;99.90;;;;;;5030488;28;20425;-66
2022/10/27 04:24:04;;;;;;;0.40;0.40;;;11.00;99.90;;;;;;5031773;28;20436;-66
2022/10/27 04:26:52;;;;;;;0.40;0.40;;;10.90;99.90;;;;;;5031502;28;20800;-66
2022/10/27 04:29:40;;;;;;;0.40;0.40;;;10.80;99.90;;;;;;5031949;28;21061;-67
2022/10/27 04:32:28;;;;;;;0.40;0.40;;;10.90;99.90;;;;;;5032914;28;20435;-65
2022/10/27 04:35:16;;;;;;;0.40;0.40;;;10.90;99.90;;;;;;5032324;28;20796;-66
2022/10/27 04:40:33;;;;;;;0.40;0.40;;;10.90;99.90;;;;;;5073615;22;20503;-68
2022/10/27 04:43:21;;;;;;;0.40;0.40;;;10.80;99.90;;;;;;5052677;28;20947;-68
2022/10/27 04:46:09;;;;;;;0.40;0.40;;;10.80;99.90;;;;;;5052050;28;20814;-68
2022/10/27 04:48:58;;;;;;;0.50;0.50;;;10.80;99.90;;;;;;5052831;28;20467;-68
2022/10/27 04:51:46;;;;;;;0.40;0.40;;;10.80;99.90;;;;;;5056423;28;20421;-69
2022/10/27 04:54:34;;;;;;;0.40;0.40;;;10.80;99.90;;;;;;5056228;28;20431;-68
2022/10/27 04:57:23;;;;;;;0.40;0.40;;;10.90;99.90;;;;;;5056609;28;20518;-70
2022/10/27 05:00:12;;;;;;;0.40;0.40;;;10.80;99.90;;;;;;5055806;28;20586;-68
2022/10/27 05:03:00;;;;;;;0.40;0.40;;;10.80;99.90;;;;;;5056409;28;20982;-68
2022/10/27 05:05:48;;;;;;;0.40;0.40;;;10.80;99.90;;;;;;5056851;28;20420;-68
2022/10/27 05:08:36;;;;;;;0.40;0.40;;;10.80;99.90;;;;;;5055482;28;20482;-69
2022/10/27 05:11:24;;;;;;;0.40;0.40;;;10.80;99.90;;;;;;5056755;28;20570;-69
2022/10/27 05:14:14;;;;;;;0.40;0.40;;;10.70;99.90;;;;;;5055483;28;20791;-68
2022/10/27 05:17:02;;;;;;;0.40;0.40;;;10.70;99.90;;;;;;5056416;28;20565;-68
2022/10/27 05:19:50;;;;;;;0.40;0.40;;;10.70;99.90;;;;;;5056077;28;20502;-67
2022/10/27 05:22:38;;;;;;;0.40;0.40;;;10.80;99.90;;;;;;5055775;28;20424;-68
2022/10/27 05:25:26;;;;;;;0.40;0.40;;;10.80;99.90;;;;;;5055922;28;20437;-68
2022/10/27 05:28:14;;;;;;;0.40;0.40;;;10.70;99.90;;;;;;5056667;28;20527;-68
2022/10/27 05:31:03;;;;;;;0.40;0.40;;;10.80;99.90;;;;;;5055917;28;20463;-70
2022/10/27 05:33:51;;;;;;;0.30;0.30;;;10.70;99.90;;;;;;5056174;28;20507;-67
2022/10/27 05:36:39;;;;;;;0.40;0.40;;;10.80;99.90;;;;;;5055214;28;20504;-70
2022/10/27 05:39:30;;;;;;;0.40;0.40;;;10.80;99.90;;;;;;5054933;28;20515;-70
2022/10/27 05:42:18;;;;;;;0.40;0.40;;;10.70;99.90;;;;;;5055314;28;20420;-70
2022/10/27 05:45:08;;;;;;;0.40;0.40;;;10.70;99.90;;;;;;5055904;28;21008;-70
2022/10/27 05:48:01;;;;;;;0.40;0.40;;;10.70;99.90;;;;;;5055411;28;20920;-70
2022/10/27 05:50:52;;;;;;;0.60;0.60;;;10.70;99.90;;;;;;5055826;28;20980;-67
2022/10/27 05:53:40;;;;;;;0.40;0.40;;;10.70;99.90;;;;;;5056798;28;20439;-70
2022/10/27 05:56:28;;;;;;;0.40;0.40;;;10.70;99.90;;;;;;5056076;28;20434;-70
2022/10/27 05:59:16;;;;;;;0.40;0.40;;;10.70;99.90;;;;;;5054086;28;20527;-69
2022/10/27 06:02:04;;;;;;;0.80;0.80;;;10.70;99.90;;;;;;5054309;28;21001;-69
2022/10/27 06:04:54;;;;;;;0.40;0.40;;;10.70;99.90;;;;;;5053163;28;20425;-66
2022/10/27 06:07:42;;;;;;;0.40;0.40;;;10.80;99.90;;;;;;5054414;28;20904;-65
2022/10/27 06:10:30;;;;;;;0.40;0.40;;;10.80;99.90;;;;;;5055139;28;20517;-65
2022/10/27 06:13:18;;;;;;;0.40;0.40;;;10.80;99.90;;;;;;5054891;28;20574;-65
2022/10/27 06:16:07;;;;;;;0.40;0.40;;;10.80;99.90;;;;;;5054812;28;20416;-66
2022/10/27 06:18:59;;;;;;;0.40;0.40;;;10.80;99.90;;;;;;5055489;28;20867;-65
2022/10/27 06:21:49;;;;;;;0.50;0.50;;;10.90;99.90;;;;;;5055761;28;20420;-66
2022/10/27 06:24:37;;;;;;;0.50;0.50;;;10.90;99.90;;;;;;5054887;28;20452;-66
2022/10/27 06:27:25;;;;;;;0.40;0.40;;;10.90;99.90;;;;;;5054363;28;20852;-66
2022/10/27 06:30:13;;;;;;;1.93;1.83;;;10.90;99.90;;;;;;5053396;28;20515;-66
2022/10/27 06:33:02;;;;;;;0.40;0.40;;;10.90;99.90;;;;;;5054155;28;20520;-65
2022/10/27 06:35:50;;;;;;;0.40;0.40;;;11.00;99.90;;;;;;5053333;28;20813;-66
2022/10/27 06:38:39;;;;;;;0.40;0.40;;;11.00;99.90;;;;;;5049392;28;20502;-66
2022/10/27 06:41:31;;;;;;;0.40;0.40;;;11.10;99.90;;;;;;5034603;28;20500;-66
2022/10/27 06:44:19;;;;;;;0.40;0.40;;;11.20;99.90;;;;;;5050108;28;20804;-71
2022/10/27 06:47:07;;;;;;;0.40;0.40;;;11.10;99.90;;;;;;5056138;28;20601;-67
2022/10/27 06:49:55;;;;;;;0.40;0.40;;;11.10;99.90;;;;;;5053962;28;20456;-68
2022/10/27 06:52:43;;;;;;;1.13;1.13;;;11.30;99.90;;;;;;5054950;28;20424;-69
2022/10/27 06:55:33;;;;;;;1.07;1.07;;;11.30;99.90;;;;;;5053302;28;20451;-68
2022/10/27 06:58:21;;;;;;;0.77;0.77;;;11.40;99.90;;;;;;5054079;28;20424;-65
2022/10/27 07:01:09;;;;;;;0.40;0.40;;;11.40;99.90;;;;;;5053211;28;20910;-66
2022/10/27 07:03:58;;;;;;;0.40;0.40;;;11.50;99.90;;;;;;5060552;28;20447;-65
2022/10/27 07:06:46;;;;;;;0.40;0.40;;;11.50;99.90;;;;;;5073415;28;20962;-66
2022/10/27 07:09:34;;;;;;;0.50;0.50;;;11.60;99.90;;;;;;5048266;28;20503;-65
2022/10/27 07:12:25;;;;;;;0.40;0.40;;;11.70;99.90;;;;;;5047104;28;20944;-65
2022/10/27 07:15:13;;;;;;;0.40;0.40;;;11.70;99.90;;;;;;5051889;28;20472;-65
2022/10/27 07:18:04;;;;;;;0.40;0.40;;;11.80;99.90;;;;;;5045806;28;20428;-65
2022/10/27 07:20:53;;;;;;;0.40;0.40;;;11.80;99.90;;;;;;5053316;28;20575;-66
2022/10/27 07:23:41;;;;;;;0.77;0.77;;;11.90;99.90;;;;;;5053051;28;20428;-66
2022/10/27 07:26:29;;;;;;;0.40;0.40;;;12.00;99.90;;;;;;5048492;28;20933;-66
2022/10/27 07:29:19;;;;;;;0.40;0.40;;;12.00;99.90;;;;;;5071439;28;20538;-65
2022/10/27 07:32:08;;;;;;;0.40;0.40;;;12.10;99.90;;;;;;5073017;28;20486;-66
2022/10/27 07:34:55;;;;;;;0.40;0.40;;;12.20;99.90;;;;;;5055694;28;20457;-66
2022/10/27 07:37:44;;;;;;;0.40;0.40;;;12.20;99.90;;;;;;5042876;28;20464;-66
2022/10/27 07:40:32;;;;;;;0.40;0.40;;;12.30;99.90;;;;;;5051862;28;20474;-66
2022/10/27 07:43:20;;;;;;;0.40;0.40;;;12.40;99.90;;;;;;5035547;28;20429;-66
2022/10/27 07:46:10;;;;;;;0.40;0.40;;;12.40;99.90;;;;;;5051896;28;20557;-63
2022/10/27 07:48:58;;;;;;;0.40;0.40;;;12.50;99.90;;;;;;5042024;28;20449;-66
2022/10/27 07:51:46;;;;;;;0.40;0.40;;;12.50;99.90;;;;;;5046782;28;20525;-66
2022/10/27 07:54:34;;;;;;;0.40;0.40;;;12.60;99.90;;;;;;5047657;28;20437;-66
2022/10/27 07:57:22;;;;;;;0.40;0.40;;;12.70;99.90;;;;;;5049515;28;21006;-68
2022/10/27 08:00:13;;;;;;;1.33;1.33;;;12.80;99.90;;;;;;5068587;28;20537;-66
2022/10/27 08:03:04;;;;;;;0.40;0.40;;;12.80;99.90;;;;;;5052065;28;20442;-66
2022/10/27 08:05:53;;;;;;;0.40;0.40;;;12.80;99.90;;;;;;5052592;28;20420;-66
2022/10/27 08:08:41;;;;;;;0.40;0.40;;;12.90;99.90;;;;;;5052177;28;21000;-66
2022/10/27 08:11:29;;;;;;;0.40;0.40;;;13.00;99.90;;;;;;5051195;28;20558;-66
2022/10/27 08:14:18;;;;;;;0.40;0.40;;;13.00;99.90;;;;;;5049255;28;20432;-65
2022/10/27 08:17:06;;;;;;;0.40;0.40;;;13.00;99.90;;;;;;5052321;28;20529;-65
2022/10/27 08:19:56;;;;;;;0.40;0.40;;;13.10;99.90;;;;;;5051966;28;20955;-66
2022/10/27 08:22:44;;;;;;;0.40;0.40;;;13.20;99.90;;;;;;5052854;28;20544;-65
2022/10/27 08:25:32;;;;;;;0.40;0.40;;;13.20;99.90;;;;;;5051997;28;20519;-66
2022/10/27 08:28:20;;;;;;;0.40;0.40;;;13.30;99.90;;;;;;5052577;28;20477;-66
2022/10/27 08:31:08;;;;;;;0.40;0.40;;;13.40;99.90;;;;;;5062702;28;20463;-66
2022/10/27 08:33:56;;;;;;;0.40;0.40;;;13.40;99.90;;;;;;5049423;28;20433;-66
2022/10/27 08:36:46;;;;;;;0.40;0.40;;;13.50;99.90;;;;;;5064902;28;20779;-66
2022/10/27 08:39:34;;;;;;;0.40;0.40;;;13.50;99.90;;;;;;5060900;28;20556;-66
2022/10/27 08:42:36;;;;;;;0.40;0.40;;;13.70;99.90;;;;;;5051404;28;20527;-66
2022/10/27 08:45:28;;;;;;;0.40;0.40;;;13.70;99.90;;;;;;5050486;28;20979;-66
2022/10/27 08:48:24;;;;;;;0.40;0.40;;;13.90;99.90;;;;;;5052235;28;20420;-66
2022/10/27 08:51:16;;;;;;;0.40;0.40;;;13.90;99.90;;;;;;5053396;28;20491;-66
2022/10/27 08:54:09;;;;;;;0.40;0.40;;;14.10;99.90;;;;;;5051470;28;20420;-66
2022/10/27 08:56:59;;;;;;;0.40;0.40;;;14.10;99.90;;;;;;5049660;28;20432;-65
2022/10/27 08:59:48;;;;;;;0.40;0.40;;;14.20;99.90;;;;;;5054149;28;20464;-66
2022/10/27 09:02:55;;;;;;;0.40;0.40;;;14.30;99.90;;;;;;5053911;28;20786;-66
2022/10/27 09:05:59;;;;;;;0.40;0.40;;;14.40;99.90;;;;;;5032113;28;20948;-65
2022/10/27 09:08:54;;;;;;;0.40;0.40;;;14.60;99.90;;;;;;5057170;28;20484;-66
2022/10/27 09:11:53;;;;;;;0.40;0.40;;;14.60;99.90;;;;;;5033021;28;20213;-67
2022/10/27 09:14:59;;;;;;;0.40;0.40;;;14.70;99.90;;;;;;5048554;28;20815;-66
2022/10/27 09:17:50;;;;;;;0.40;0.40;;;14.90;99.90;;;;;;5053664;28;20499;-66
2022/10/27 09:20:44;;;;;;;0.40;0.40;;;15.00;99.90;;;;;;5055988;28;20431;-67
2022/10/27 09:23:36;;;;;;;0.40;0.40;;;15.10;99.90;;;;;;5061276;28;20455;-65
2022/10/27 09:26:28;;;;;;;0.40;0.40;;;15.20;99.90;;;;;;5055940;28;20543;-66
2022/10/27 09:29:20;;;;;;;0.40;0.40;;;15.40;99.90;;;;;;5052023;28;20304;-65
2022/10/27 09:32:18;;;;;;;0.40;0.40;;;15.40;99.90;;;;;;5051848;28;20224;-65
2022/10/27 09:35:11;;;;;;;0.40;0.40;;;15.50;99.90;;;;;;5050153;28;20431;-66
2022/10/27 09:38:02;;;;;;;0.40;0.40;;;15.60;99.90;;;;;;5055280;28;20205;-66
2022/10/27 09:40:51;;;;;;;0.40;0.40;;;15.70;99.90;;;;;;5052652;28;20647;-65
2022/10/27 09:43:39;;;;;;;0.40;0.40;;;15.80;99.90;;;;;;5054723;28;20206;-65
2022/10/27 09:46:30;;;;;;;0.40;0.40;;;16.00;99.90;;;;;;5051563;28;20201;-66
2022/10/27 09:49:19;;;;;;;0.40;0.40;;;16.00;99.90;;;;;;5051733;28;20769;-66
2022/10/27 09:52:12;;;;;;;1.23;1.23;;;16.10;99.90;;;;;;5052662;28;20282;-65
2022/10/27 09:55:00;;;;;;;0.40;0.40;;;16.20;99.90;;;;;;5054409;28;20617;-66
2022/10/27 09:57:50;;;;;;;0.40;0.40;;;16.20;99.90;;;;;;5055107;28;20280;-66
2022/10/27 10:00:38;;;;;;;0.40;0.40;;;16.30;99.90;;;;;;5042518;28;20197;-66
2022/10/27 10:03:28;;;;;;;0.40;0.40;;;16.40;99.90;;;;;;5038141;28;20276;-66
2022/10/27 10:06:25;;;;;;;0.50;0.50;;;16.50;99.90;;;;;;5049766;28;20278;-64
2022/10/27 10:09:31;;;;;;;0.40;0.40;;;16.60;99.90;;;;;;5042293;28;20352;-65
2022/10/27 10:12:22;;;;;;;0.40;0.40;;;16.60;99.90;;;;;;5044724;28;20753;-66
2022/10/27 10:15:19;;;;;;;0.40;0.40;;;16.70;99.90;;;;;;5053577;28;20265;-64
2022/10/27 10:18:22;;;;;;;0.40;0.40;;;16.80;99.90;;;;;;5053285;28;20217;-66
2022/10/27 10:21:14;;;;;;;0.40;0.40;;;16.90;99.90;;;;;;5053083;28;20209;-66
2022/10/27 10:24:02;;;;;;;0.40;0.40;;;16.90;99.90;;;;;;5051910;28;20197;-66
2022/10/27 10:26:53;;;;;;;0.40;0.40;;;17.00;99.90;;;;;;5055130;28;20228;-68
2022/10/27 10:29:47;;;;;;;0.40;0.40;;;17.00;99.90;;;;;;5055435;28;20300;-66
2022/10/27 10:32:37;;;;;;;0.40;0.40;;;17.00;99.90;;;;;;5056746;28;20221;-66
2022/10/27 10:35:44;;;;;;;0.40;0.40;;;17.10;99.90;;;;;;5056382;28;20209;-66
2022/10/27 10:41:06;;;;;;;0.40;0.40;;;17.10;99.90;;;;;;5050291;28;20685;-64
2022/10/27 10:44:13;;;;;;;0.40;0.40;;;17.20;99.90;;;;;;5054821;28;20280;-68
2022/10/27 10:47:01;;;;;;;0.40;0.40;;;17.40;99.90;;;;;;5060648;28;20197;-70
2022/10/27 10:49:52;;;;;;;0.50;0.50;;;17.40;99.90;;;;;;5033204;28;20701;-70
2022/10/27 10:52:48;;;;;;;0.40;0.40;;;17.50;99.90;;;;;;5032428;28;20214;-69
2022/10/27 10:55:38;;;;;;;0.40;0.40;;;17.50;99.90;;;;;;5033609;28;20202;-69
2022/10/27 10:58:29;;;;;;;0.40;0.40;;;17.70;99.90;;;;;;5034001;28;20290;-69
2022/10/27 11:01:17;;;;;;;0.40;0.40;;;17.70;99.90;;;;;;5033558;28;20213;-69
2022/10/27 11:04:07;;;;;;;0.40;0.40;;;17.80;99.90;;;;;;5034049;28;20198;-70
2022/10/27 11:07:00;;;;;;;0.40;0.40;;;17.90;99.90;;;;;;5045024;28;20191;-68
2022/10/27 11:09:56;;;;;;;0.40;0.40;;;18.00;99.90;;;;;;5051826;28;20304;-69
2022/10/27 11:12:47;;;;;;;0.40;0.40;;;18.10;99.90;;;;;;5053464;28;20299;-69
2022/10/27 11:15:43;;;;;;;0.40;0.40;;;18.20;99.90;;;;;;5053267;28;20239;-69
2022/10/27 11:18:40;;;;;;;0.40;0.40;;;18.40;99.90;;;;;;5052895;28;20204;-68
2022/10/27 11:21:35;;;;;;;0.40;0.40;;;18.40;99.90;;;;;;5053571;28;20280;-71
2022/10/27 11:24:30;;;;;;;0.40;0.40;;;18.50;99.90;;;;;;5054228;28;20689;-73
2022/10/27 11:27:22;;;;;;;0.40;0.40;;;18.50;99.90;;;;;;5052843;28;20204;-68
2022/10/27 11:30:20;;;;;;;0.40;0.40;;;18.50;99.90;;;;;;5053614;28;20320;-68
2022/10/27 11:33:21;;;;;;;0.40;0.40;;;18.60;99.90;;;;;;5052959;28;20229;-68
2022/10/27 11:36:16;;;;;;;0.40;0.40;;;18.60;99.90;;;;;;5054371;28;20201;-68
2022/10/27 11:39:06;;;;;;;0.40;0.40;;;18.60;99.90;;;;;;5053031;28;20288;-67
2022/10/27 11:42:00;;;;;;;0.40;0.40;;;18.60;99.90;;;;;;5051973;28;20276;-69
2022/10/27 11:44:58;;;;;;;0.40;0.40;;;18.60;99.90;;;;;;5053397;28;20283;-69
2022/10/27 11:47:49;;;;;;;0.40;0.40;;;18.60;99.90;;;;;;5052454;28;20237;-69
2022/10/27 11:50:43;;;;;;;0.40;0.40;;;18.60;99.90;;;;;;5052494;28;20237;-68
2022/10/27 11:53:32;;;;;;;0.40;0.40;;;18.60;99.90;;;;;;5052226;28;20224;-70
2022/10/27 11:56:38;;;;;;;0.40;0.40;;;18.60;99.90;;;;;;5053011;28;20201;-70
2022/10/27 11:59:39;;;;;;;0.40;0.40;;;18.70;99.90;;;;;;5052316;28;20225;-68
2022/10/27 12:02:57;;;;;;;0.40;0.40;;;18.80;99.90;;;;;;5050339;28;20207;-68
2022/10/27 12:05:53;;;;;;;0.40;0.40;;;18.80;99.90;;;;;;5050500;28;20562;-69
2022/10/27 12:08:49;;;;;;;0.40;0.40;;;18.90;99.90;;;;;;5052307;28;20276;-67
2022/10/27 12:11:47;;;;;;;0.40;0.40;;;18.90;99.90;;;;;;5051392;28;20209;-69
2022/10/27 12:14:50;;;;;;;0.40;0.40;;;19.00;99.90;;;;;;5052514;28;20286;-71
2022/10/27 12:17:43;;;;;;;0.40;0.40;;;19.00;99.90;;;;;;5052657;28;20559;-68
2022/10/27 12:20:43;;;;;;;0.40;0.40;;;19.10;99.90;;;;;;5051856;28;20263;-67
2022/10/27 12:23:39;;;;;;;0.40;0.40;;;19.10;99.90;;;;;;5051124;28;20696;-68
2022/10/27 12:26:32;;;;;;;0.40;0.40;;;19.20;99.90;;;;;;5052214;28;20340;-68
2022/10/27 12:29:22;;;;;;;0.40;0.40;;;19.20;99.90;;;;;;5051235;28;20256;-67
2022/10/27 12:32:14;;;;;;;0.40;0.40;;;19.20;99.90;;;;;;5053617;28;20197;-68
2022/10/27 12:35:08;;;;;;;0.40;0.40;;;19.30;99.90;;;;;;5051481;28;20846;-68
2022/10/27 12:38:08;;;;;;;0.40;0.40;;;19.30;99.90;;;;;;5052182;28;20201;-67
2022/10/27 12:41:03;;;;;;;0.40;0.40;;;19.30;99.90;;;;;;5051935;28;20211;-70
2022/10/27 12:44:01;;;;;;;0.40;0.40;;;19.40;99.90;;;;;;5052764;28;20281;-68
2022/10/27 12:47:04;;;;;;;0.40;0.40;;;19.40;99.90;;;;;;5052786;28;20201;-67
2022/10/27 12:50:04;;;;;;;0.40;0.40;;;19.50;99.90;;;;;;5052277;28;20217;-68
2022/10/27 12:52:58;;;;;;;0.40;0.40;;;19.50;99.90;;;;;;5052099;28;20240;-68
2022/10/27 12:55:52;;;;;;;0.40;0.40;;;19.50;99.90;;;;;;5052173;28;20194;-69
2022/10/27 12:58:50;;;;;;;0.40;0.40;;;19.60;99.90;;;;;;5033357;28;20675;-68
2022/10/27 13:01:44;;;;;;;0.40;0.40;;;19.70;99.90;;;;;;5032315;28;20285;-69
2022/10/27 13:05:18;;;;;;;0.40;0.40;;;19.80;99.90;;;;;;5032707;28;20194;-67
2022/10/27 13:08:30;;;;;;;0.40;0.40;;;19.90;99.90;;;;;;5061657;28;20207;-67
2022/10/27 13:11:44;;;;;;;0.40;0.40;;;20.00;99.90;;;;;;5061111;28;20204;-68
2022/10/27 13:15:17;;;;;;;0.40;0.40;;;20.00;99.90;;;;;;5018929;28;20225;-67
2022/10/27 13:18:21;;;;;;;0.40;0.40;;;20.10;99.90;;;;;;5036828;28;20694;-66
2022/10/27 13:21:18;;;;;;;0.40;0.40;;;20.20;99.90;;;;;;5036888;28;20241;-67
2022/10/27 13:24:17;;;;;;;0.40;0.40;;;20.20;99.90;;;;;;5037201;28;20273;-67
2022/10/27 13:27:13;;;;;;;0.40;0.40;;;20.30;99.90;;;;;;5038166;28;20198;-66
2022/10/27 13:30:07;;;;;;;0.40;0.40;;;20.30;99.90;;;;;;5037734;28;20356;-66
2022/10/27 13:32:56;;;;;;;0.40;0.40;;;20.40;99.90;;;;;;5044696;28;20213;-67
2022/10/27 13:35:44;;;;;;;0.40;0.40;;;20.50;99.90;;;;;;5059101;28;20237;-66
2022/10/27 13:38:32;;;;;;;0.40;0.40;;;20.50;99.90;;;;;;5063972;28;20282;-70
2022/10/27 13:41:48;;;;;;;0.40;0.40;;;20.60;99.90;;;;;;5067514;28;20665;-67
2022/10/27 13:44:38;;;;;;;0.40;0.40;;;20.70;99.90;;;;;;5076421;28;20192;-67
2022/10/27 13:47:27;;;;;;;0.40;0.40;;;21.00;99.90;;;;;;5076229;28;20201;-67
2022/10/27 13:50:35;;;;;;;0.40;0.40;;;21.00;99.90;;;;;;5075272;28;20224;-68
2022/10/27 13:53:32;;;;;;;0.40;0.40;;;21.20;99.90;;;;;;5074851;28;20695;-67
2022/10/27 13:56:37;;;;;;;0.40;0.40;;;21.50;99.90;;;;;;5073453;28;20197;-67
2022/10/27 13:59:29;;;;;;;0.50;0.50;;;21.70;99.90;;;;;;5053543;28;20221;-66
2022/10/27 14:02:32;;;;;;;0.40;0.40;;;22.00;99.90;;;;;;5052423;28;20231;-68
2022/10/27 14:05:31;;;;;;;0.40;0.40;;;22.30;99.90;;;;;;5054218;28;20200;-68
2022/10/27 14:08:23;;;;;;;0.40;0.40;;;22.50;99.90;;;;;;5061935;28;20205;-66
2022/10/27 14:11:15;;;;;;;0.40;0.40;;;22.60;99.90;;;;;;5059431;28;20706;-66
2022/10/27 14:14:08;;;;;;;0.40;0.40;;;22.70;99.90;;;;;;5062753;28;20236;-67
2022/10/27 14:16:59;;;;;;;0.93;0.93;;;22.80;99.90;;;;;;5058048;28;20748;-68
2022/10/27 14:19:56;;;;;;;0.40;0.40;;;22.60;99.90;;;;;;5055338;28;20307;-67
2022/10/27 14:22:48;;;;;;;0.40;0.40;;;22.30;99.90;;;;;;5056369;28;20201;-69
2022/10/27 14:25:37;;;;;;;0.50;0.50;;;21.90;99.90;;;;;;5055165;28;20758;-67
2022/10/27 14:28:25;;;;;;;0.40;0.40;;;21.60;99.90;;;;;;5035563;28;20276;-67
2022/10/27 14:31:17;;;;;;;5.60;3.90;;;21.60;99.90;;;;;;5034123;28;20257;-71
2022/10/27 14:34:17;;;;;;;0.40;0.40;;;21.50;99.90;;;;;;5046398;28;20236;-67
2022/10/27 14:37:16;;;;;;;1.02;1.02;;;21.40;99.90;;;;;;5062881;28;20201;-68
2022/10/27 14:40:15;;;;;;;0.40;0.40;;;21.20;99.90;;;;;;5061576;28;20316;-67
2022/10/27 14:43:07;;;;;;;0.40;0.40;;;20.90;99.90;;;;;;5064890;28;20357;-67
2022/10/27 14:45:59;;;;;;;0.40;0.40;;;20.70;99.90;;;;;;5056601;28;20205;-67
2022/10/27 14:48:57;;;;;;;0.40;0.40;;;20.40;99.90;;;;;;5054706;28;20275;-66
2022/10/27 14:51:48;;;;;;;0.40;0.40;;;20.30;99.90;;;;;;5060193;28;20193;-66
2022/10/27 14:54:38;;;;;;;0.40;0.40;;;20.20;99.90;;;;;;5065192;28;20351;-67
2022/10/27 14:57:34;;;;;;;0.40;0.40;;;20.10;99.90;;;;;;5063210;28;20197;-67
2022/10/27 15:00:24;;;;;;;0.40;0.40;;;20.00;99.90;;;;;;5066207;28;20327;-67
2022/10/27 15:03:12;;;;;;;0.40;0.40;;;19.90;99.90;;;;;;5055486;28;20264;-67